LOT377 EPWA-EDDF
Flight info
| Callsign | LOT377 |
|---|---|
| Flight time | N/A |
| Altitude | 40000 |
| Route | LOLSI DCT DIBLO DCT INDIG DCT KORUP DCT SULED DCT ROBEL T178 KERAX |
| Aircraft | B38M/M-SDE1FGHILORVWXY/HB1 |
Departure
| Time | N/A |
|---|---|
| Airport | Warsaw Chopin Airport (EPWA) |
Arrival
| Time | 2026-04-14 22:18 |
|---|---|
| Airport | Frankfurt Main Airport (EDDF) |
| Time | Latitude | Longitude | Altitude | Speed | Heading |
|---|---|---|---|---|---|
| 2026-04-14 21:20 | 51.53893 | 14.42030 | 40263 ft | 359 kts | 267° |
| 2026-04-14 21:21 | 51.51291 | 14.23772 | 40263 ft | 361 kts | 266° |
| 2026-04-14 21:22 | 51.50066 | 14.15239 | 40263 ft | 360 kts | 266° |
| 2026-04-14 21:23 | 51.47526 | 13.97627 | 40263 ft | 359 kts | 266° |
| 2026-04-14 21:23 | 51.46394 | 13.89823 | 40263 ft | 359 kts | 266° |
| 2026-04-14 21:24 | 51.45260 | 13.82053 | 40263 ft | 359 kts | 266° |
| 2026-04-14 21:24 | 51.44132 | 13.74354 | 40263 ft | 360 kts | 266° |
| 2026-04-14 21:25 | 51.42982 | 13.66541 | 40263 ft | 360 kts | 266° |
| 2026-04-14 21:25 | 51.41852 | 13.58913 | 40263 ft | 360 kts | 266° |
| 2026-04-14 21:26 | 51.40722 | 13.51317 | 40263 ft | 360 kts | 266° |
| 2026-04-14 21:26 | 51.39574 | 13.43634 | 40263 ft | 360 kts | 266° |
| 2026-04-14 21:27 | 51.38445 | 13.36118 | 40263 ft | 360 kts | 266° |
| 2026-04-14 21:27 | 51.37344 | 13.28851 | 40263 ft | 361 kts | 266° |
| 2026-04-14 21:28 | 51.36166 | 13.21125 | 40263 ft | 361 kts | 266° |
| 2026-04-14 21:28 | 51.34980 | 13.13379 | 40263 ft | 358 kts | 265° |
| 2026-04-14 21:29 | 51.33794 | 13.05678 | 40262 ft | 352 kts | 265° |
| 2026-04-14 21:29 | 51.32633 | 12.98174 | 40263 ft | 346 kts | 264° |
| 2026-04-14 21:30 | 51.31484 | 12.90764 | 40263 ft | 344 kts | 264° |
| 2026-04-14 21:30 | 51.30339 | 12.83381 | 40264 ft | 346 kts | 264° |
| 2026-04-14 21:31 | 51.29177 | 12.75923 | 40263 ft | 347 kts | 264° |
| 2026-04-14 21:31 | 51.28020 | 12.68541 | 40263 ft | 346 kts | 264° |
| 2026-04-14 21:32 | 51.26853 | 12.61133 | 40263 ft | 346 kts | 264° |
| 2026-04-14 21:32 | 51.25722 | 12.53979 | 40263 ft | 346 kts | 264° |
| 2026-04-14 21:33 | 51.24537 | 12.46523 | 40263 ft | 346 kts | 264° |
| 2026-04-14 21:33 | 51.23357 | 12.39124 | 40263 ft | 346 kts | 264° |
| 2026-04-14 21:34 | 51.22168 | 12.31719 | 40263 ft | 347 kts | 263° |
| 2026-04-14 21:34 | 51.20960 | 12.24275 | 40263 ft | 347 kts | 263° |
| 2026-04-14 21:35 | 51.19756 | 12.16862 | 40263 ft | 347 kts | 263° |
| 2026-04-14 21:35 | 51.18554 | 12.09484 | 40263 ft | 346 kts | 263° |
| 2026-04-14 21:36 | 51.17388 | 12.02344 | 40263 ft | 346 kts | 263° |
| 2026-04-14 21:36 | 51.16144 | 11.94750 | 40263 ft | 346 kts | 263° |
| 2026-04-14 21:37 | 51.14932 | 11.87386 | 40263 ft | 347 kts | 263° |
| 2026-04-14 21:37 | 51.13711 | 11.80001 | 40263 ft | 347 kts | 263° |
| 2026-04-14 21:38 | 51.12481 | 11.72588 | 40263 ft | 346 kts | 263° |
| 2026-04-14 21:38 | 51.11252 | 11.65219 | 40263 ft | 346 kts | 263° |
| 2026-04-14 21:39 | 51.10020 | 11.57866 | 40263 ft | 346 kts | 263° |
| 2026-04-14 21:39 | 51.08775 | 11.50458 | 40263 ft | 347 kts | 263° |
| 2026-04-14 21:40 | 51.07529 | 11.43085 | 40263 ft | 347 kts | 263° |
| 2026-04-14 21:40 | 51.06282 | 11.35726 | 40263 ft | 347 kts | 263° |
| 2026-04-14 21:41 | 51.05027 | 11.28396 | 40263 ft | 348 kts | 263° |
| 2026-04-14 21:41 | 51.03745 | 11.20954 | 40262 ft | 348 kts | 263° |
| 2026-04-14 21:42 | 51.02482 | 11.13619 | 40263 ft | 349 kts | 263° |
| 2026-04-14 21:42 | 51.01206 | 11.06218 | 40263 ft | 350 kts | 263° |
| 2026-04-14 21:43 | 50.99909 | 10.98718 | 40263 ft | 351 kts | 263° |
| 2026-04-14 21:43 | 50.98621 | 10.91316 | 40262 ft | 349 kts | 262° |
| 2026-04-14 21:44 | 50.97325 | 10.83920 | 40263 ft | 347 kts | 261° |
| 2026-04-14 21:44 | 50.96037 | 10.76596 | 40263 ft | 346 kts | 261° |
| 2026-04-14 21:45 | 50.94744 | 10.69257 | 40264 ft | 348 kts | 261° |
| 2026-04-14 21:45 | 50.93437 | 10.61853 | 40264 ft | 350 kts | 261° |
| 2026-04-14 21:46 | 50.92024 | 10.54500 | 40257 ft | 358 kts | 253° |
| 2026-04-14 21:46 | 50.90708 | 10.51106 | 40269 ft | 370 kts | 245° |
| 2026-04-14 21:46 | 50.89245 | 10.47885 | 40265 ft | 374 kts | 244° |
| 2026-04-14 21:47 | 50.85565 | 10.41797 | 40263 ft | 398 kts | 229° |
| 2026-04-14 21:47 | 50.83173 | 10.39402 | 40262 ft | 414 kts | 219° |
| 2026-04-14 21:47 | 50.80533 | 10.37552 | 40268 ft | 422 kts | 215° |
| 2026-04-14 21:48 | 50.75228 | 10.34201 | 40262 ft | 421 kts | 213° |
| 2026-04-14 21:48 | 50.70084 | 10.30442 | 40262 ft | 406 kts | 224° |
| 2026-04-14 21:49 | 50.67825 | 10.27894 | 40263 ft | 395 kts | 231° |
| 2026-04-14 21:49 | 50.65933 | 10.25110 | 40264 ft | 386 kts | 238° |
| 2026-04-14 21:49 | 50.62679 | 10.18626 | 40263 ft | 374 kts | 246° |
| 2026-04-14 21:50 | 50.59971 | 10.11818 | 40263 ft | 370 kts | 249° |
| 2026-04-14 21:50 | 50.57432 | 10.04844 | 40262 ft | 368 kts | 250° |
| 2026-04-14 21:51 | 50.55099 | 9.97798 | 39969 ft | 359 kts | 255° |
| 2026-04-14 21:51 | 50.54174 | 9.94160 | 39122 ft | 362 kts | 258° |
| 2026-04-14 21:51 | 50.53363 | 9.90429 | 38256 ft | 363 kts | 260° |
| 2026-04-14 21:52 | 50.52626 | 9.86724 | 37726 ft | 358 kts | 261° |
| 2026-04-14 21:52 | 50.51926 | 9.83067 | 37371 ft | 349 kts | 261° |
| 2026-04-14 21:52 | 50.51257 | 9.79492 | 36992 ft | 341 kts | 262° |
| 2026-04-14 21:52 | 50.50606 | 9.75963 | 36552 ft | 341 kts | 262° |
| 2026-04-14 21:53 | 50.49954 | 9.72355 | 36066 ft | 346 kts | 262° |
| 2026-04-14 21:53 | 50.49322 | 9.68749 | 35525 ft | 342 kts | 262° |
| 2026-04-14 21:53 | 50.48708 | 9.65187 | 35008 ft | 342 kts | 262° |
| 2026-04-14 21:53 | 50.48091 | 9.61577 | 34467 ft | 347 kts | 262° |
| 2026-04-14 21:54 | 50.47475 | 9.57986 | 33914 ft | 343 kts | 262° |
| 2026-04-14 21:54 | 50.46827 | 9.54379 | 33371 ft | 348 kts | 261° |
| 2026-04-14 21:54 | 50.46135 | 9.50694 | 32796 ft | 353 kts | 261° |
| 2026-04-14 21:54 | 50.45568 | 9.47720 | 32325 ft | 349 kts | 260° |
| 2026-04-14 21:55 | 50.44768 | 9.43521 | 31668 ft | 355 kts | 260° |
| 2026-04-14 21:55 | 50.44070 | 9.39840 | 31180 ft | 351 kts | 260° |
| 2026-04-14 21:55 | 50.43378 | 9.36219 | 30759 ft | 342 kts | 260° |
| 2026-04-14 21:55 | 50.42694 | 9.32847 | 30349 ft | 349 kts | 255° |
| 2026-04-14 21:56 | 50.41708 | 9.29423 | 29884 ft | 357 kts | 248° |
| 2026-04-14 21:56 | 50.40339 | 9.26107 | 29388 ft | 357 kts | 240° |
| 2026-04-14 21:56 | 50.38717 | 9.23235 | 28939 ft | 358 kts | 233° |
| 2026-04-14 21:56 | 50.36819 | 9.20718 | 28491 ft | 366 kts | 225° |
| 2026-04-14 21:57 | 50.34710 | 9.18534 | 28034 ft | 373 kts | 221° |
| 2026-04-14 21:57 | 50.32505 | 9.16386 | 27552 ft | 365 kts | 223° |
| 2026-04-14 21:57 | 50.30502 | 9.14055 | 27099 ft | 351 kts | 229° |
| 2026-04-14 21:57 | 50.28801 | 9.11446 | 26660 ft | 342 kts | 236° |
| 2026-04-14 21:58 | 50.27378 | 9.08520 | 26223 ft | 340 kts | 243° |
| 2026-04-14 21:58 | 50.26205 | 9.05348 | 25742 ft | 331 kts | 248° |
| 2026-04-14 21:58 | 50.25235 | 9.02151 | 25290 ft | 323 kts | 251° |
| 2026-04-14 21:58 | 50.24377 | 8.98960 | 24859 ft | 326 kts | 252° |
| 2026-04-14 21:59 | 50.23545 | 8.95638 | 24406 ft | 325 kts | 252° |
| 2026-04-14 21:59 | 50.22753 | 8.92377 | 23968 ft | 318 kts | 253° |
| 2026-04-14 21:59 | 50.21983 | 8.89156 | 23551 ft | 319 kts | 253° |
| 2026-04-14 21:59 | 50.21207 | 8.85877 | 23128 ft | 322 kts | 253° |
| 2026-04-14 22:00 | 50.20444 | 8.82648 | 22686 ft | 316 kts | 253° |
| 2026-04-14 22:00 | 50.19684 | 8.79431 | 22264 ft | 312 kts | 252° |
| 2026-04-14 22:00 | 50.18932 | 8.76237 | 21854 ft | 319 kts | 252° |
| 2026-04-14 22:00 | 50.18180 | 8.73054 | 21416 ft | 313 kts | 252° |
| 2026-04-14 22:01 | 50.17432 | 8.69896 | 20993 ft | 307 kts | 252° |
| 2026-04-14 22:01 | 50.16691 | 8.66763 | 20588 ft | 314 kts | 252° |
| 2026-04-14 22:01 | 50.15928 | 8.63537 | 20143 ft | 310 kts | 252° |
| 2026-04-14 22:01 | 50.15196 | 8.60457 | 19724 ft | 304 kts | 252° |
| 2026-04-14 22:02 | 50.14451 | 8.57320 | 19313 ft | 309 kts | 252° |
| 2026-04-14 22:02 | 50.13712 | 8.54217 | 18880 ft | 308 kts | 252° |
| 2026-04-14 22:02 | 50.12960 | 8.51079 | 18444 ft | 302 kts | 252° |
| 2026-04-14 22:02 | 50.12229 | 8.48031 | 18038 ft | 305 kts | 252° |
| 2026-04-14 22:03 | 50.11486 | 8.44923 | 17604 ft | 306 kts | 251° |
| 2026-04-14 22:03 | 50.10741 | 8.41850 | 17171 ft | 300 kts | 251° |
| 2026-04-14 22:03 | 50.09996 | 8.38819 | 16756 ft | 301 kts | 251° |
| 2026-04-14 22:03 | 50.09248 | 8.35762 | 16332 ft | 303 kts | 251° |
| 2026-04-14 22:04 | 50.08564 | 8.32952 | 15927 ft | 298 kts | 250° |
| 2026-04-14 22:04 | 50.07800 | 8.29817 | 15490 ft | 296 kts | 250° |
| 2026-04-14 22:04 | 50.07062 | 8.26778 | 15075 ft | 300 kts | 250° |
| 2026-04-14 22:04 | 50.06336 | 8.23789 | 14639 ft | 296 kts | 250° |
| 2026-04-14 22:05 | 50.05613 | 8.20814 | 14218 ft | 292 kts | 250° |
| 2026-04-14 22:05 | 50.04881 | 8.17806 | 13807 ft | 299 kts | 250° |
| 2026-04-14 22:05 | 50.04156 | 8.14829 | 13367 ft | 295 kts | 250° |
| 2026-04-14 22:05 | 50.03437 | 8.11885 | 12951 ft | 290 kts | 250° |
| 2026-04-14 22:06 | 50.02719 | 8.08946 | 12545 ft | 295 kts | 250° |
| 2026-04-14 22:06 | 50.01986 | 8.05957 | 12107 ft | 293 kts | 250° |
| 2026-04-14 22:06 | 50.01266 | 8.03023 | 11686 ft | 289 kts | 250° |
| 2026-04-14 22:06 | 50.00555 | 8.00119 | 11279 ft | 290 kts | 250° |
| 2026-04-14 22:07 | 49.99838 | 7.97192 | 10861 ft | 292 kts | 250° |
| 2026-04-14 22:07 | 49.99128 | 7.94300 | 10481 ft | 286 kts | 251° |
| 2026-04-14 22:07 | 49.98462 | 7.91590 | 10364 ft | 273 kts | 251° |
| 2026-04-14 22:07 | 49.97802 | 7.88915 | 10288 ft | 259 kts | 250° |
| 2026-04-14 22:08 | 49.96918 | 7.86527 | 10176 ft | 254 kts | 233° |
| 2026-04-14 22:08 | 49.95541 | 7.84658 | 9713 ft | 274 kts | 213° |
| 2026-04-14 22:08 | 49.93709 | 7.83724 | 9192 ft | 285 kts | 188° |
| 2026-04-14 22:08 | 49.91723 | 7.84021 | 8743 ft | 291 kts | 165° |
| 2026-04-14 22:09 | 49.89826 | 7.85106 | 8336 ft | 292 kts | 160° |
| 2026-04-14 22:09 | 49.87946 | 7.86269 | 7976 ft | 289 kts | 160° |
| 2026-04-14 22:09 | 49.86124 | 7.87453 | 7618 ft | 287 kts | 151° |
| 2026-04-14 22:09 | 49.84701 | 7.89554 | 7312 ft | 282 kts | 118° |
| 2026-04-14 22:10 | 49.84243 | 7.92388 | 7038 ft | 272 kts | 84° |
| 2026-04-14 22:10 | 49.84794 | 7.95092 | 6758 ft | 262 kts | 58° |
| 2026-04-14 22:10 | 49.85785 | 7.97488 | 6469 ft | 258 kts | 52° |
| 2026-04-14 22:10 | 49.86805 | 7.99724 | 6264 ft | 251 kts | 51° |
| 2026-04-14 22:11 | 49.87839 | 8.01805 | 6154 ft | 240 kts | 47° |
| 2026-04-14 22:11 | 49.88914 | 8.03753 | 5936 ft | 234 kts | 38° |
| 2026-04-14 22:11 | 49.90174 | 8.05318 | 5693 ft | 231 kts | 38° |
| 2026-04-14 22:11 | 49.91392 | 8.06947 | 5420 ft | 230 kts | 38° |
| 2026-04-14 22:12 | 49.92587 | 8.08576 | 5228 ft | 227 kts | 40° |
| 2026-04-14 22:12 | 49.93538 | 8.10506 | 5272 ft | 230 kts | 56° |
| 2026-04-14 22:12 | 49.94337 | 8.12621 | 5246 ft | 221 kts | 57° |
| 2026-04-14 22:12 | 49.95082 | 8.14659 | 5246 ft | 213 kts | 57° |
| 2026-04-14 22:13 | 49.95743 | 8.16698 | 4917 ft | 212 kts | 65° |
| 2026-04-14 22:13 | 49.96253 | 8.18803 | 4607 ft | 205 kts | 67° |
| 2026-04-14 22:13 | 49.96735 | 8.20848 | 4304 ft | 198 kts | 66° |
| 2026-04-14 22:13 | 49.97203 | 8.22804 | 4035 ft | 191 kts | 66° |
| 2026-04-14 22:14 | 49.97662 | 8.24706 | 3775 ft | 184 kts | 66° |
| 2026-04-14 22:14 | 49.98107 | 8.26543 | 3529 ft | 178 kts | 66° |
| 2026-04-14 22:14 | 49.98533 | 8.28296 | 3291 ft | 172 kts | 66° |
| 2026-04-14 22:14 | 49.98946 | 8.30002 | 3058 ft | 168 kts | 66° |
| 2026-04-14 22:15 | 49.99345 | 8.31681 | 2827 ft | 163 kts | 67° |
| 2026-04-14 22:15 | 49.99735 | 8.33296 | 2566 ft | 155 kts | 67° |
| 2026-04-14 22:15 | 50.00093 | 8.34790 | 2386 ft | 144 kts | 66° |
| 2026-04-14 22:15 | 50.00451 | 8.36221 | 2181 ft | 140 kts | 66° |
| 2026-04-14 22:16 | 50.00808 | 8.37621 | 2064 ft | 140 kts | 66° |
| 2026-04-14 22:16 | 50.01157 | 8.39064 | 1835 ft | 143 kts | 68° |
| 2026-04-14 22:16 | 50.01496 | 8.40511 | 1615 ft | 142 kts | 68° |
| 2026-04-14 22:16 | 50.01837 | 8.41936 | 1441 ft | 141 kts | 68° |
| 2026-04-14 22:17 | 50.02173 | 8.43306 | 1255 ft | 142 kts | 67° |
| 2026-04-14 22:17 | 50.02533 | 8.44814 | 1068 ft | 142 kts | 68° |
| 2026-04-14 22:17 | 50.02874 | 8.46237 | 868 ft | 144 kts | 68° |
| 2026-04-14 22:17 | 50.03224 | 8.47691 | 674 ft | 144 kts | 68° |
| 2026-04-14 22:18 | 50.03566 | 8.49132 | 487 ft | 143 kts | 68° |
| 2026-04-14 22:18 | 50.03902 | 8.50525 | 373 ft | 134 kts | 68° |
| 2026-04-14 22:18 | 50.04144 | 8.51533 | 371 ft | 61 kts | 68° |
| 2026-04-14 22:18 | 50.04225 | 8.51916 | 371 ft | 28 kts | 79° |
| 2026-04-14 22:19 | 50.04231 | 8.52203 | 371 ft | 25 kts | 97° |
| 2026-04-14 22:19 | 50.04201 | 8.52680 | 371 ft | 19 kts | 71° |
| 2026-04-14 22:19 | 50.04247 | 8.52866 | 371 ft | 17 kts | 69° |
| 2026-04-14 22:20 | 50.04289 | 8.53046 | 371 ft | 18 kts | 69° |
| 2026-04-14 22:20 | 50.04340 | 8.53257 | 371 ft | 24 kts | 70° |
| 2026-04-14 22:20 | 50.04390 | 8.53501 | 385 ft | 19 kts | 78° |
| 2026-04-14 22:20 | 50.04406 | 8.53707 | 391 ft | 21 kts | 83° |
| 2026-04-14 22:21 | 50.04423 | 8.53963 | 391 ft | 26 kts | 84° |
| 2026-04-14 22:21 | 50.04442 | 8.54248 | 391 ft | 18 kts | 84° |
| 2026-04-14 22:21 | 50.04450 | 8.54432 | 391 ft | 15 kts | 91° |
| 2026-04-14 22:21 | 50.04425 | 8.54592 | 383 ft | 18 kts | 117° |
| 2026-04-14 22:22 | 50.04330 | 8.54750 | 372 ft | 20 kts | 147° |
| 2026-04-14 22:22 | 50.04198 | 8.54831 | 371 ft | 19 kts | 160° |
| 2026-04-14 22:22 | 50.04125 | 8.54874 | 371 ft | 1 kts | 159° |
| 2026-04-14 22:22 | 50.04101 | 8.54887 | 371 ft | 8 kts | 159° |
| 2026-04-14 22:23 | 50.04010 | 8.54942 | 371 ft | 15 kts | 158° |
| 2026-04-14 22:23 | 50.03910 | 8.55002 | 371 ft | 15 kts | 158° |
| 2026-04-14 22:23 | 50.03845 | 8.55094 | 371 ft | 12 kts | 77° |
| 2026-04-14 22:23 | 50.03875 | 8.55227 | 371 ft | 15 kts | 68° |
| 2026-04-14 22:24 | 50.03920 | 8.55413 | 371 ft | 21 kts | 69° |
| 2026-04-14 22:24 | 50.03980 | 8.55663 | 371 ft | 27 kts | 69° |
| 2026-04-14 22:24 | 50.04047 | 8.55944 | 371 ft | 29 kts | 68° |
| 2026-04-14 22:24 | 50.04120 | 8.56248 | 371 ft | 28 kts | 70° |
| 2026-04-14 22:25 | 50.04188 | 8.56534 | 371 ft | 26 kts | 69° |
| 2026-04-14 22:25 | 50.04245 | 8.56759 | 371 ft | 19 kts | 57° |
| 2026-04-14 22:25 | 50.04346 | 8.56828 | 371 ft | 14 kts | 9° |
| 2026-04-14 22:25 | 50.04444 | 8.56847 | 371 ft | 13 kts | 1° |
| 2026-04-14 22:26 | 50.04534 | 8.56854 | 371 ft | 12 kts | 14° |
| 2026-04-14 22:26 | 50.04612 | 8.56904 | 371 ft | 11 kts | 24° |
| 2026-04-14 22:26 | 50.04680 | 8.56931 | 371 ft | 2 kts | 333° |
| 2026-04-14 22:26 | 50.04688 | 8.56899 | 371 ft | 2 kts | 288° |
| 2026-04-14 22:27 | 50.04694 | 8.56873 | 371 ft | 2 kts | 290° |
| 2026-04-14 22:27 | 50.04700 | 8.56853 | 371 ft | 1 kts | 293° |
| 2026-04-14 22:27 | 50.04701 | 8.56848 | 371 ft | 0 kts | 293° |